Time;durP1;ratioP1;P1;durP2;ratioP2;P2;SDS_P1;SDS_P2;PMS_P1;PMS_P2;Temp;Humidity;BMP_temperature;BMP_pressure;BME280_temperature;BME280_humidity;BME280_pressure;Samples;Min_cycle;Max_cycle;Signal;HPM_P1;HPM_P2
2022/04/08 18:38:03;;;;;;;15.40;4.30;;;;;;;11.62;35.94;97184.99;106089;1267;106417;-65
2022/04/08 18:40:32;;;;;;;16.50;4.40;;;;;;;11.61;35.73;97194.05;106054;1274;97867;-68
2022/04/08 18:43:00;;;;;;;14.10;4.30;;;;;;;11.61;36.01;97201.60;106049;1274;97860;-68
2022/04/08 18:45:28;;;;;;;16.40;4.70;;;;;;;11.59;35.88;97194.79;105984;1274;111897;-68
2022/04/08 18:47:56;;;;;;;14.90;4.00;;;;;;;11.57;35.56;97198.65;106027;1274;97963;-69
2022/04/08 18:50:24;;;;;;;13.20;4.00;;;;;;;11.58;35.75;97195.61;106000;1274;108352;-70
2022/04/08 18:52:52;;;;;;;14.60;4.10;;;;;;;11.58;35.92;97194.52;106005;1274;97939;-68
2022/04/08 18:55:21;;;;;;;14.10;3.60;;;;;;;11.61;35.78;97193.52;105992;1274;95311;-69
2022/04/08 18:57:48;;;;;;;14.10;4.50;;;;;;;11.61;35.98;97205.36;105934;1274;111970;-68
2022/04/08 19:00:17;;;;;;;12.90;4.00;;;;;;;11.56;36.13;97205.75;105829;1274;98056;-72
2022/04/08 19:02:45;;;;;;;12.40;4.50;;;;;;;11.55;36.14;97200.30;106111;1274;107627;-70
2022/04/08 19:05:15;;;;;;;14.10;4.30;;;;;;;11.55;36.80;97196.23;106170;1274;96179;-69
2022/04/08 19:07:43;;;;;;;9.90;3.40;;;;;;;11.48;36.90;97195.52;106151;1274;96692;-67
2022/04/08 19:10:11;;;;;;;10.60;3.80;;;;;;;11.43;36.98;97195.02;106207;1272;111705;-68
2022/04/08 19:12:40;;;;;;;13.30;3.70;;;;;;;11.42;36.68;97194.61;106166;1274;97995;-69
2022/04/08 19:15:10;;;;;;;10.50;3.60;;;;;;;11.43;36.84;97186.67;105986;1274;108462;-69
2022/04/08 19:17:39;;;;;;;11.70;3.30;;;;;;;11.44;37.24;97178.57;106130;1274;97870;-67
2022/04/08 19:20:09;;;;;;;11.10;3.20;;;;;;;11.40;37.12;97179.94;106136;1273;97889;-66
2022/04/08 19:22:39;;;;;;;11.50;3.70;;;;;;;11.34;37.08;97185.45;106049;1272;111451;-67
2022/04/08 19:25:08;;;;;;;10.80;3.50;;;;;;;11.31;37.35;97189.53;106069;1274;97863;-67
2022/04/08 19:27:36;;;;;;;14.20;3.80;;;;;;;11.26;37.41;97185.61;106045;1274;107614;-67
2022/04/08 19:30:06;;;;;;;11.10;3.40;;;;;;;11.22;37.61;97177.16;106089;1274;97951;-68
2022/04/08 19:32:34;;;;;;;11.40;3.50;;;;;;;11.20;37.70;97177.77;106073;1274;96380;-67
2022/04/08 19:35:02;;;;;;;13.40;3.80;;;;;;;11.17;37.87;97172.70;105979;1274;112051;-69
2022/04/08 19:37:31;;;;;;;15.80;5.30;;;;;;;11.13;37.87;97159.81;106066;1274;96857;-71
2022/04/08 19:39:59;;;;;;;21.00;5.90;;;;;;;11.09;37.94;97148.39;106091;1274;108344;-68
2022/04/08 19:42:27;;;;;;;21.60;7.70;;;;;;;10.98;38.59;97145.41;106108;1274;97921;-67
2022/04/08 19:44:56;;;;;;;17.20;6.20;;;;;;;10.84;39.16;97133.75;106086;1274;97875;-67
2022/04/08 19:47:25;;;;;;;18.10;6.00;;;;;;;10.71;38.71;97130.67;106084;1274;111403;-67
2022/04/08 19:49:53;;;;;;;21.60;6.40;;;;;;;10.57;38.54;97121.33;106009;1274;97418;-68
2022/04/08 19:52:22;;;;;;;17.80;5.90;;;;;;;10.46;38.55;97120.91;106096;1274;108411;-65
2022/04/08 19:54:50;;;;;;;17.70;5.90;;;;;;;10.38;38.81;97122.94;105916;1273;97887;-67
2022/04/08 19:57:18;;;;;;;16.40;5.40;;;;;;;10.30;38.89;97118.17;106063;1274;96433;-68
2022/04/08 19:59:48;;;;;;;15.80;4.60;;;;;;;10.29;38.87;97123.64;106024;1274;112115;-68
2022/04/08 20:02:19;;;;;;;16.10;5.00;;;;;;;10.24;39.24;97116.34;106000;1274;97976;-68
2022/04/08 20:04:48;;;;;;;17.90;5.50;;;;;;;10.14;39.32;97111.02;105986;1274;108397;-67
2022/04/08 20:07:18;;;;;;;17.70;4.80;;;;;;;10.07;39.37;97112.56;106060;1273;98090;-67
2022/04/08 20:09:46;;;;;;;19.00;5.00;;;;;;;10.00;39.44;97096.61;106061;1274;98939;-67
2022/04/08 20:12:14;;;;;;;16.10;5.40;;;;;;;9.93;39.09;97093.29;106144;1274;113298;-66
2022/04/08 20:14:43;;;;;;;15.60;5.40;;;;;;;9.90;39.66;97097.48;106066;1274;95343;-68
2022/04/08 20:17:11;;;;;;;18.60;5.40;;;;;;;9.87;39.77;97067.73;106041;1274;108315;-68
2022/04/08 20:19:39;;;;;;;16.90;5.60;;;;;;;9.83;39.67;97080.61;106006;1273;97895;-67
2022/04/08 20:22:08;;;;;;;14.60;4.90;;;;;;;9.82;39.68;97096.13;106047;1274;97873;-67
2022/04/08 20:24:36;;;;;;;18.80;5.80;;;;;;;9.82;40.22;97095.56;106085;1274;111916;-67
2022/04/08 20:27:04;;;;;;;15.40;5.10;;;;;;;9.83;40.00;97093.55;106043;1274;97977;-66
2022/04/08 20:29:33;;;;;;;17.70;5.60;;;;;;;9.85;40.21;97089.84;106012;1274;108359;-68
2022/04/08 20:32:03;;;;;;;16.30;5.00;;;;;;;9.86;40.35;97086.70;106151;1274;97888;-67
2022/04/08 20:34:32;;;;;;;14.90;5.10;;;;;;;9.88;40.51;97073.46;106133;1274;97959;-68
2022/04/08 20:37:02;;;;;;;15.60;5.40;;;;;;;9.88;40.66;97067.46;106138;1274;112144;-67
2022/04/08 20:39:31;;;;;;;17.80;6.70;;;;;;;9.89;40.56;97062.33;106161;1274;97758;-68
2022/04/08 20:42:08;;;;;;;21.40;7.70;;;;;;;9.90;40.88;97062.25;106169;1274;109978;-67
2022/04/08 20:44:38;;;;;;;20.20;6.80;;;;;;;9.90;40.88;97057.25;106123;1273;97896;-66
2022/04/08 20:47:07;;;;;;;20.70;7.70;;;;;;;9.89;40.96;97052.80;106074;1274;98040;-67
2022/04/08 20:49:35;;;;;;;23.40;8.00;;;;;;;9.88;40.97;97044.52;105950;1274;112084;-65
2022/04/08 20:52:05;;;;;;;20.40;7.80;;;;;;;9.86;41.10;97032.89;106016;1274;97953;-67
2022/04/08 20:54:36;;;;;;;20.30;7.30;;;;;;;9.85;41.19;97031.06;106099;1273;107065;-64
2022/04/08 20:57:05;;;;;;;20.00;7.90;;;;;;;9.83;41.34;97038.65;105978;1274;97703;-64
2022/04/08 20:59:33;;;;;;;20.50;7.10;;;;;;;9.83;41.44;97027.49;106047;1274;95179;-67
2022/04/08 21:02:02;;;;;;;21.10;6.90;;;;;;;9.83;41.61;97021.15;105999;1273;109948;-65
2022/04/08 21:04:32;;;;;;;21.60;6.60;;;;;;;9.81;41.52;97015.30;106057;1274;97921;-65
2022/04/08 21:07:07;;;;;;;16.50;5.70;;;;;;;9.78;41.54;97009.67;106146;1274;108245;-67
2022/04/08 21:09:37;;;;;;;18.70;6.40;;;;;;;9.75;41.93;97008.55;106105;1274;95283;-65
2022/04/08 21:12:09;;;;;;;16.30;5.50;;;;;;;9.74;42.08;97017.46;105991;1274;98054;-66
2022/04/08 21:14:37;;;;;;;18.90;6.10;;;;;;;9.74;42.00;97017.27;106019;1274;112052;-67
2022/04/08 21:17:10;;;;;;;19.10;6.20;;;;;;;9.72;42.13;97008.13;106094;1274;98078;-67
2022/04/08 21:19:39;;;;;;;19.30;6.40;;;;;;;9.71;42.39;96997.83;106130;1274;108425;-64
2022/04/08 21:22:07;;;;;;;18.80;5.40;;;;;;;9.68;42.07;97015.63;106030;1274;97992;-67
2022/04/08 21:24:35;;;;;;;15.60;5.50;;;;;;;9.60;42.43;97017.95;106029;1274;96902;-66
2022/04/08 21:27:04;;;;;;;22.30;7.10;;;;;;;9.56;42.94;97009.23;106006;1274;113044;-65
2022/04/08 21:29:33;;;;;;;15.60;4.80;;;;;;;9.55;42.61;97008.45;106079;1274;97915;-65
2022/04/08 21:32:01;;;;;;;13.40;4.90;;;;;;;9.46;42.96;96994.65;106016;1273;108135;-66
2022/04/08 21:34:29;;;;;;;14.00;4.70;;;;;;;9.44;42.83;96984.09;105979;1274;97955;-67
2022/04/08 21:36:57;;;;;;;11.40;4.60;;;;;;;9.37;42.97;96991.95;105993;1274;96926;-65
2022/04/08 21:39:29;;;;;;;11.30;4.20;;;;;;;9.34;43.17;96991.55;106021;1274;112057;-66
2022/04/08 21:41:58;;;;;;;15.80;4.80;;;;;;;9.28;45.27;96982.23;106004;1274;95220;-65
2022/04/08 21:44:27;;;;;;;14.00;4.40;;;;;;;9.04;44.82;96987.48;106015;1272;108260;-66
2022/04/08 21:46:58;;;;;;;11.50;4.10;;;;;;;8.94;45.10;96989.36;106042;1274;97886;-65
2022/04/08 21:49:26;;;;;;;15.20;4.50;;;;;;;8.85;46.11;96985.50;106046;1274;97976;-66
2022/04/08 21:52:00;;;;;;;13.60;4.50;;;;;;;8.71;45.94;96994.45;106098;1274;111392;-66
2022/04/08 21:54:30;;;;;;;12.70;4.40;;;;;;;8.68;45.65;97003.23;106199;1274;95370;-66
2022/04/08 21:57:02;;;;;;;13.80;4.90;;;;;;;8.70;45.67;96986.27;106109;1274;108409;-65
2022/04/08 21:59:30;;;;;;;13.80;4.40;;;;;;;8.73;45.86;96977.14;106032;1274;95353;-67
2022/04/08 22:01:59;;;;;;;11.40;4.50;;;;;;;8.77;45.72;96983.93;106036;1274;97881;-67
2022/04/08 22:04:27;;;;;;;11.70;4.20;;;;;;;8.83;45.86;96994.15;106246;1274;112056;-67
2022/04/08 22:06:55;;;;;;;16.00;5.20;;;;;;;8.88;45.80;96984.31;106102;1273;97953;-65
2022/04/08 22:09:31;;;;;;;16.80;5.30;;;;;;;8.90;45.99;96973.25;106080;1274;110057;-66
2022/04/08 22:11:59;;;;;;;17.70;5.50;;;;;;;8.93;45.71;96961.17;106078;1274;97834;-67
2022/04/08 22:14:28;;;;;;;18.50;6.20;;;;;;;8.96;45.88;96964.29;106075;1274;97019;-67
2022/04/08 22:16:57;;;;;;;17.80;6.60;;;;;;;8.98;45.89;96975.92;106098;1274;110324;-67
2022/04/08 22:19:30;;;;;;;18.30;6.30;;;;;;;9.00;46.17;96970.20;106099;1274;95221;-67
2022/04/08 22:21:58;;;;;;;19.00;6.60;;;;;;;9.01;46.33;96961.80;106029;1274;108357;-66
2022/04/08 22:24:26;;;;;;;20.50;7.10;;;;;;;9.01;46.27;96957.52;106022;1274;97889;-69
2022/04/08 22:26:57;;;;;;;20.80;7.00;;;;;;;9.03;46.39;96953.17;106035;1274;97975;-66
2022/04/08 22:29:24;;;;;;;20.40;7.70;;;;;;;9.04;46.29;96948.63;106062;1273;112004;-66
2022/04/08 22:31:53;;;;;;;16.90;6.60;;;;;;;9.05;46.52;96949.34;106138;1274;96452;-66
2022/04/08 22:34:20;;;;;;;18.60;6.90;;;;;;;9.05;46.38;96941.21;106020;1274;108489;-68
2022/04/08 22:36:49;;;;;;;16.80;6.60;;;;;;;9.02;46.60;96930.95;106131;1274;97952;-66
2022/04/08 22:39:17;;;;;;;17.80;5.90;;;;;;;8.99;46.54;96923.83;106002;1274;97904;-66
2022/04/08 22:41:46;;;;;;;18.90;6.90;;;;;;;8.98;46.90;96908.54;106070;1274;112062;-67
2022/04/08 22:44:15;;;;;;;24.10;7.40;;;;;;;8.99;46.87;96886.84;106110;1274;97970;-67
2022/04/08 22:46:44;;;;;;;18.40;7.40;;;;;;;9.00;46.92;96862.00;106017;1274;110679;-67
2022/04/08 22:49:14;;;;;;;19.60;7.10;;;;;;;9.01;46.75;96856.14;106031;1274;98074;-67
2022/04/08 22:51:43;;;;;;;21.10;7.20;;;;;;;8.92;46.99;96853.46;106058;1274;97929;-66
2022/04/08 22:54:11;;;;;;;20.80;7.70;;;;;;;8.86;47.45;96848.76;106102;1274;113880;-70
2022/04/08 22:56:41;;;;;;;20.60;6.90;;;;;;;8.87;47.53;96851.64;106115;1274;98021;-70
2022/04/08 22:59:10;;;;;;;19.40;7.40;;;;;;;8.88;47.35;96867.95;106084;1274;108827;-67
2022/04/08 23:01:38;;;;;;;21.50;7.30;;;;;;;8.86;47.80;96864.25;106049;1274;97954;-68
2022/04/08 23:04:08;;;;;;;18.90;7.40;;;;;;;8.86;48.11;96857.55;106084;1274;97977;-66
2022/04/08 23:06:37;;;;;;;17.80;6.80;;;;;;;8.87;48.02;96857.11;106028;1274;111419;-66
2022/04/08 23:09:05;;;;;;;21.10;7.50;;;;;;;8.89;48.27;96849.56;106001;1274;97960;-65
2022/04/08 23:11:34;;;;;;;20.20;6.80;;;;;;;8.87;48.23;96850.05;106063;1274;108779;-66
2022/04/08 23:14:04;;;;;;;18.30;7.40;;;;;;;8.89;48.19;96838.86;106045;1274;97998;-67
2022/04/08 23:16:33;;;;;;;20.60;7.20;;;;;;;8.91;48.02;96827.57;106149;1274;97898;-65
2022/04/08 23:19:02;;;;;;;22.60;8.00;;;;;;;8.92;48.01;96816.84;106028;1274;112045;-67
2022/04/08 23:21:31;;;;;;;20.20;7.60;;;;;;;8.90;47.95;96818.27;106438;1274;96160;-67
2022/04/08 23:23:59;;;;;;;19.80;7.80;;;;;;;8.80;48.32;96803.55;106162;1274;108251;-67
2022/04/08 23:26:27;;;;;;;20.30;7.70;;;;;;;8.72;48.57;96799.77;106056;1274;95260;-67
2022/04/08 23:28:56;;;;;;;21.10;7.80;;;;;;;8.72;48.42;96803.09;105990;1274;97840;-65
2022/04/08 23:31:25;;;;;;;19.50;8.00;;;;;;;8.72;48.93;96800.14;106100;1274;111657;-68
2022/04/08 23:33:53;;;;;;;24.30;9.40;;;;;;;8.73;49.07;96797.14;106118;1274;97868;-68
2022/04/08 23:36:22;;;;;;;22.90;8.50;;;;;;;8.77;49.23;96791.70;106094;1274;107076;-68
2022/04/08 23:38:53;;;;;;;21.40;8.50;;;;;;;8.81;49.48;96792.88;106108;1274;98593;-68
2022/04/08 23:41:23;;;;;;;21.00;8.50;;;;;;;8.85;49.54;96795.29;105995;1274;97857;-66
2022/04/08 23:43:52;;;;;;;20.90;8.80;;;;;;;8.85;49.48;96788.59;105944;1274;113113;-67
2022/04/08 23:46:29;;;;;;;27.60;9.30;;;;;;;8.85;49.30;96784.02;105998;1274;98558;-67
2022/04/08 23:48:57;;;;;;;22.90;8.50;;;;;;;8.83;49.37;96779.58;105983;1274;108428;-65
2022/04/08 23:51:27;;;;;;;23.90;8.60;;;;;;;8.82;49.52;96774.59;106060;1274;97987;-67
2022/04/08 23:53:55;;;;;;;21.20;7.90;;;;;;;8.82;49.55;96771.81;106180;1274;97876;-67
2022/04/08 23:56:24;;;;;;;23.10;9.10;;;;;;;8.82;49.73;96769.85;106147;1274;111919;-67
2022/04/08 23:58:52;;;;;;;22.90;8.50;;;;;;;8.81;49.73;96768.13;106090;1274;97990;-67
